Time;durP1;ratioP1;P1;durP2;ratioP2;P2;SDS_P1;SDS_P2;PMS_P1;PMS_P2;Temp;Humidity;BMP_temperature;BMP_pressure;BME280_temperature;BME280_humidity;BME280_pressure;Samples;Min_cycle;Max_cycle;Signal;HPM_P1;HPM_P2
2023/09/13 00:02:12;;;;;;;14.40;7.03;;;18.20;34.00;;;;;;5085475;27;48387;-82
2023/09/13 00:04:37;;;;;;;9.83;7.30;;;18.20;33.90;;;;;;5106905;27;46668;-84
2023/09/13 00:07:03;;;;;;;12.37;7.77;;;18.20;33.80;;;;;;5105393;27;46408;-83
2023/09/13 00:09:28;;;;;;;11.80;8.10;;;18.20;33.80;;;;;;5109551;27;46445;-85
2023/09/13 00:11:54;;;;;;;9.77;6.77;;;18.20;33.80;;;;;;5109119;27;46439;-84
2023/09/13 00:14:20;;;;;;;14.17;7.40;;;18.20;33.80;;;;;;5096750;27;46872;-82
2023/09/13 00:16:45;;;;;;;12.80;6.70;;;18.10;33.80;;;;;;5088931;27;46482;-79
2023/09/13 00:19:11;;;;;;;12.80;6.30;;;18.30;34.30;;;;;;5106753;27;46745;-82
2023/09/13 00:21:40;;;;;;;10.20;7.13;;;18.10;34.20;;;;;;5103478;27;46987;-82
2023/09/13 00:24:07;;;;;;;14.33;6.60;;;18.10;34.40;;;;;;5105845;27;46540;-79
2023/09/13 00:26:33;;;;;;;10.63;6.70;;;18.00;34.40;;;;;;5106612;27;46737;-82
2023/09/13 00:28:59;;;;;;;13.00;7.50;;;17.90;34.90;;;;;;5084798;27;46679;-83
2023/09/13 00:31:24;;;;;;;15.57;6.77;;;17.80;35.30;;;;;;5106042;27;46384;-81
2023/09/13 00:33:50;;;;;;;14.30;6.90;;;17.80;35.70;;;;;;5104139;27;46552;-83
2023/09/13 00:36:16;;;;;;;11.47;6.87;;;17.80;35.90;;;;;;5110849;27;46216;-81
2023/09/13 00:38:41;;;;;;;11.57;7.03;;;17.70;36.10;;;;;;5091632;27;45903;-82
2023/09/13 00:41:07;;;;;;;13.43;6.53;;;17.70;36.20;;;;;;5106816;27;46378;-83
2023/09/13 00:43:33;;;;;;;12.47;7.27;;;17.80;36.20;;;;;;5105387;27;45854;-81
2023/09/13 00:45:59;;;;;;;11.83;6.40;;;17.90;36.20;;;;;;5103596;27;45945;-82
2023/09/13 00:48:25;;;;;;;13.77;6.90;;;17.90;36.00;;;;;;5088713;27;46145;-82
2023/09/13 00:50:51;;;;;;;14.80;6.60;;;17.90;35.80;;;;;;5102876;27;46530;-83
2023/09/13 00:53:18;;;;;;;12.33;5.83;;;18.00;35.50;;;;;;5108227;27;46760;-82
2023/09/13 00:55:46;;;;;;;8.47;5.50;;;18.10;35.40;;;;;;5106314;27;46514;-79
2023/09/13 00:58:11;;;;;;;7.33;5.10;;;18.20;34.90;;;;;;5088598;27;46621;-81
2023/09/13 01:00:37;;;;;;;9.03;5.73;;;18.30;34.40;;;;;;5093936;27;48037;-83
2023/09/13 01:03:05;;;;;;;8.67;5.20;;;18.40;34.00;;;;;;5105051;27;46651;-82
2023/09/13 01:05:31;;;;;;;8.77;4.97;;;18.40;33.70;;;;;;5106566;27;46734;-82
2023/09/13 01:07:56;;;;;;;15.80;5.10;;;18.50;33.50;;;;;;5106887;27;46671;-82
2023/09/13 01:10:22;;;;;;;9.63;5.33;;;18.50;33.30;;;;;;5108330;27;46857;-80
2023/09/13 01:12:48;;;;;;;11.97;5.40;;;18.50;32.70;;;;;;5087751;27;47792;-81
2023/09/13 01:15:14;;;;;;;9.03;5.10;;;18.60;32.80;;;;;;5110651;27;47062;-81
2023/09/13 01:18:01;;;;;;;7.27;4.73;;;18.60;33.00;;;;;;5107027;27;46635;-81
2023/09/13 01:20:44;;;;;;;10.30;5.80;;;18.50;33.40;;;;;;5106050;27;47047;-81
2023/09/13 01:23:40;;;;;;;15.90;5.80;;;18.40;33.80;;;;;;5110056;27;46690;-81
2023/09/13 01:26:42;;;;;;;8.77;4.83;;;18.40;33.80;;;;;;5090552;27;46657;-81
2023/09/13 01:29:15;;;;;;;9.50;4.90;;;18.30;34.40;;;;;;5059057;27;47170;-83
2023/09/13 01:31:41;;;;;;;8.07;5.07;;;18.10;34.30;;;;;;5129460;27;46538;-80
2023/09/13 01:34:07;;;;;;;9.77;5.43;;;18.10;34.60;;;;;;5096246;27;47202;-81
2023/09/13 01:36:32;;;;;;;8.23;4.80;;;18.10;34.70;;;;;;5114281;27;46532;-84
2023/09/13 01:38:58;;;;;;;9.30;5.03;;;18.00;34.90;;;;;;5115802;27;46606;-82
2023/09/13 01:41:31;;;;;;;10.97;5.30;;;18.00;35.00;;;;;;5116763;27;46494;-84
2023/09/13 01:43:58;;;;;;;8.40;5.47;;;17.90;35.10;;;;;;5117181;27;46465;-79
2023/09/13 01:46:28;;;;;;;9.20;5.70;;;17.90;35.20;;;;;;5106652;27;46190;-80
2023/09/13 01:48:56;;;;;;;11.23;5.23;;;17.80;35.20;;;;;;5099944;27;45983;-80
2023/09/13 01:51:25;;;;;;;9.80;5.57;;;17.90;35.30;;;;;;5105804;27;47354;-84
2023/09/13 01:53:50;;;;;;;5.90;4.10;;;17.90;35.00;;;;;;5105214;27;46483;-83
2023/09/13 01:56:21;;;;;;;9.47;4.67;;;17.90;34.80;;;;;;5108145;27;46537;-81
2023/09/13 01:58:50;;;;;;;13.20;4.83;;;18.00;34.90;;;;;;5109366;27;46469;-82
2023/09/13 02:01:16;;;;;;;9.40;5.27;;;17.90;34.40;;;;;;5106212;27;46410;-83
2023/09/13 02:03:43;;;;;;;9.00;5.23;;;18.00;34.50;;;;;;5105777;27;46464;-85
2023/09/13 02:06:08;;;;;;;7.60;4.37;;;18.10;34.60;;;;;;5108078;27;46447;-82
2023/09/13 02:08:34;;;;;;;7.33;4.70;;;18.00;34.40;;;;;;5108474;27;46570;-80
2023/09/13 02:10:59;;;;;;;11.20;5.10;;;18.10;34.30;;;;;;5110353;27;46564;-81
2023/09/13 02:13:25;;;;;;;8.67;4.97;;;18.10;34.20;;;;;;5087770;27;46698;-81
2023/09/13 02:15:51;;;;;;;10.20;5.60;;;18.10;34.10;;;;;;5109075;27;46541;-82
2023/09/13 02:18:17;;;;;;;7.30;4.83;;;18.10;34.10;;;;;;5107561;27;46821;-81
2023/09/13 02:20:42;;;;;;;7.80;5.33;;;18.10;34.10;;;;;;5088238;27;49490;-81
2023/09/13 02:23:08;;;;;;;7.53;4.90;;;18.10;34.10;;;;;;5093077;27;46793;-82
2023/09/13 02:25:37;;;;;;;8.27;4.97;;;18.20;34.10;;;;;;5080983;27;46593;-83
2023/09/13 02:28:04;;;;;;;9.43;4.70;;;18.20;33.90;;;;;;5110629;27;46506;-83
2023/09/13 02:30:31;;;;;;;7.80;5.13;;;18.30;33.80;;;;;;5112809;27;48392;-82
2023/09/13 02:32:56;;;;;;;11.97;5.47;;;18.30;33.80;;;;;;5111274;27;46695;-81
2023/09/13 02:35:22;;;;;;;9.10;4.73;;;18.30;33.80;;;;;;5109080;27;46561;-81
2023/09/13 02:37:48;;;;;;;12.53;5.80;;;18.40;34.00;;;;;;5110987;27;46516;-80
2023/09/13 02:40:13;;;;;;;9.50;4.70;;;18.40;34.10;;;;;;5107287;27;46439;-80
2023/09/13 02:42:39;;;;;;;9.57;6.10;;;18.40;33.80;;;;;;5107886;27;45835;-79
2023/09/13 02:45:05;;;;;;;12.07;4.70;;;18.50;33.80;;;;;;5110805;27;46739;-82
2023/09/13 02:47:31;;;;;;;8.97;5.20;;;18.50;33.80;;;;;;5108347;27;46663;-81
2023/09/13 02:49:56;;;;;;;10.50;5.47;;;18.60;33.70;;;;;;5109615;27;47636;-81
2023/09/13 02:52:33;;;;;;;9.53;5.73;;;18.70;33.40;;;;;;5108106;27;46458;-82
2023/09/13 02:55:00;;;;;;;6.97;5.00;;;18.80;33.30;;;;;;5105617;27;46530;-82
2023/09/13 02:57:26;;;;;;;9.80;5.50;;;18.80;33.00;;;;;;5089645;27;46506;-82
2023/09/13 02:59:52;;;;;;;8.30;5.37;;;18.80;32.90;;;;;;5110335;27;46895;-85
2023/09/13 03:02:17;;;;;;;8.10;5.17;;;18.90;33.00;;;;;;5088668;27;46800;-82
2023/09/13 03:04:43;;;;;;;8.90;5.63;;;18.90;33.00;;;;;;5110198;27;46097;-81
2023/09/13 03:07:09;;;;;;;10.00;5.43;;;18.90;33.00;;;;;;5092051;27;46339;-75
2023/09/13 03:09:35;;;;;;;11.17;5.60;;;18.90;33.00;;;;;;5113996;27;46526;-84
2023/09/13 03:12:01;;;;;;;10.87;5.67;;;18.90;33.00;;;;;;5115151;27;46768;-84
2023/09/13 03:14:28;;;;;;;9.80;5.73;;;18.90;33.00;;;;;;5111982;27;46543;-85
2023/09/13 03:16:54;;;;;;;7.20;5.00;;;19.00;33.10;;;;;;5118128;27;46094;-82
2023/09/13 03:19:20;;;;;;;9.90;5.70;;;19.00;33.20;;;;;;5107511;27;46887;-83
2023/09/13 03:21:45;;;;;;;12.40;6.00;;;18.90;33.30;;;;;;5108560;27;46802;-81
2023/09/13 03:24:11;;;;;;;13.50;6.37;;;18.90;33.30;;;;;;5089403;27;46461;-78
2023/09/13 03:26:37;;;;;;;13.47;6.53;;;18.90;33.60;;;;;;5103263;27;46544;-82
2023/09/13 03:29:02;;;;;;;14.53;7.20;;;18.90;34.00;;;;;;5105855;27;46505;-82
2023/09/13 03:31:28;;;;;;;9.10;6.10;;;18.80;34.40;;;;;;5107303;27;46445;-81
2023/09/13 03:33:56;;;;;;;12.77;6.97;;;18.90;34.60;;;;;;5109204;27;46410;-82
2023/09/13 03:36:22;;;;;;;10.17;6.33;;;18.80;34.90;;;;;;5095367;27;46521;-82
2023/09/13 03:38:47;;;;;;;13.43;7.20;;;18.90;35.20;;;;;;5108818;27;46417;-82
2023/09/13 03:41:15;;;;;;;9.93;6.23;;;18.90;35.30;;;;;;5085870;27;46439;-81
2023/09/13 03:43:41;;;;;;;12.90;7.27;;;18.80;35.50;;;;;;5106174;27;47486;-81
2023/09/13 03:46:08;;;;;;;15.63;6.00;;;18.80;35.90;;;;;;5097059;27;46790;-82
2023/09/13 03:48:35;;;;;;;9.27;6.90;;;18.80;36.20;;;;;;5104398;27;48300;-83
2023/09/13 03:51:01;;;;;;;9.23;6.13;;;18.70;36.20;;;;;;5106423;27;46465;-83
2023/09/13 03:53:27;;;;;;;14.13;7.70;;;18.70;36.40;;;;;;5089394;27;46447;-80
2023/09/13 03:55:54;;;;;;;10.43;7.13;;;18.70;36.60;;;;;;5096340;27;46752;-81
2023/09/13 03:58:20;;;;;;;15.90;7.03;;;18.70;36.90;;;;;;5101668;27;47715;-80
2023/09/13 04:00:45;;;;;;;13.60;6.70;;;18.70;36.90;;;;;;5106432;27;46588;-83
2023/09/13 04:03:11;;;;;;;12.77;7.20;;;18.70;36.80;;;;;;5090271;27;46426;-83
2023/09/13 04:05:37;;;;;;;11.00;7.10;;;18.80;36.80;;;;;;5104722;27;46205;-81
2023/09/13 04:08:03;;;;;;;18.00;7.40;;;18.80;36.60;;;;;;5100594;27;46873;-80
2023/09/13 04:10:29;;;;;;;21.83;7.33;;;18.90;36.50;;;;;;5091291;27;48375;-81
2023/09/13 04:12:54;;;;;;;12.17;7.43;;;18.90;36.60;;;;;;5096173;27;46694;-81
2023/09/13 04:15:20;;;;;;;17.33;7.60;;;19.00;36.80;;;;;;5089483;27;46373;-80
2023/09/13 04:17:46;;;;;;;12.77;7.40;;;18.90;36.80;;;;;;5103435;27;47091;-81
2023/09/13 04:20:11;;;;;;;12.67;7.07;;;19.00;36.60;;;;;;5106646;27;46488;-80
2023/09/13 04:22:37;;;;;;;10.40;7.40;;;19.00;36.60;;;;;;5107209;27;46526;-80
2023/09/13 04:25:04;;;;;;;9.23;6.77;;;19.10;36.60;;;;;;5107050;27;46742;-80
2023/09/13 04:27:30;;;;;;;11.80;7.03;;;19.10;36.50;;;;;;5089182;27;46582;-82
2023/09/13 04:29:56;;;;;;;9.87;6.57;;;19.10;36.40;;;;;;5088992;27;46478;-83
2023/09/13 04:32:23;;;;;;;10.60;6.90;;;19.30;36.40;;;;;;5103561;27;46988;-82
2023/09/13 04:34:49;;;;;;;18.50;7.33;;;19.20;36.30;;;;;;5106402;27;46374;-82
2023/09/13 04:37:15;;;;;;;11.83;7.10;;;19.30;36.40;;;;;;5110665;27;46407;-80
2023/09/13 04:39:41;;;;;;;16.33;8.30;;;19.30;36.30;;;;;;5106274;27;46812;-79
2023/09/13 04:42:07;;;;;;;12.00;8.43;;;19.50;36.30;;;;;;5089773;27;46479;-81
2023/09/13 04:44:32;;;;;;;13.57;8.30;;;19.40;36.30;;;;;;5109029;27;45921;-81
2023/09/13 04:46:59;;;;;;;15.70;8.90;;;19.40;36.40;;;;;;5109605;27;46264;-82
2023/09/13 04:49:25;;;;;;;15.77;8.90;;;19.40;36.60;;;;;;5111277;27;46453;-81
2023/09/13 04:51:52;;;;;;;12.20;9.33;;;19.30;36.80;;;;;;5097616;27;46648;-84
2023/09/13 04:54:18;;;;;;;15.80;8.87;;;19.30;37.30;;;;;;5117033;27;46533;-80
2023/09/13 04:56:43;;;;;;;14.47;9.40;;;19.30;37.60;;;;;;5101408;27;48700;-79
2023/09/13 04:59:09;;;;;;;18.03;8.77;;;19.30;37.70;;;;;;5118253;27;46783;-79
2023/09/13 05:01:34;;;;;;;16.70;9.20;;;19.30;38.10;;;;;;5092108;27;46402;-82
2023/09/13 05:04:00;;;;;;;19.17;10.03;;;19.40;38.60;;;;;;5110930;27;46155;-79
2023/09/13 05:06:26;;;;;;;13.17;9.20;;;19.30;38.90;;;;;;5089865;27;49725;-79
2023/09/13 05:08:52;;;;;;;15.77;9.67;;;19.30;38.80;;;;;;5094681;27;46379;-81
2023/09/13 05:11:19;;;;;;;12.47;9.60;;;19.40;39.00;;;;;;5108617;27;46518;-79
2023/09/13 05:13:47;;;;;;;13.77;9.50;;;19.40;39.10;;;;;;5100340;27;46490;-81
2023/09/13 05:16:14;;;;;;;12.87;9.80;;;19.40;39.30;;;;;;5108496;27;46967;-80
2023/09/13 05:18:40;;;;;;;19.60;10.20;;;19.40;39.60;;;;;;5110087;27;46755;-81
2023/09/13 05:21:05;;;;;;;16.40;9.80;;;19.40;39.70;;;;;;5110753;27;46740;-81
2023/09/13 05:23:31;;;;;;;19.87;9.17;;;19.40;39.90;;;;;;5092861;27;46422;-79
2023/09/13 05:25:56;;;;;;;22.97;10.60;;;19.50;40.30;;;;;;5093908;27;48144;-81
2023/09/13 05:28:22;;;;;;;16.23;9.50;;;19.40;40.30;;;;;;5109160;27;46529;-80
2023/09/13 05:30:49;;;;;;;15.30;9.60;;;19.30;40.40;;;;;;5110885;27;46857;-80
2023/09/13 05:33:15;;;;;;;14.20;9.40;;;19.40;40.70;;;;;;5092987;27;46434;-80
2023/09/13 05:35:40;;;;;;;22.23;10.30;;;19.40;40.90;;;;;;5110431;27;47507;-80
2023/09/13 05:38:06;;;;;;;19.03;9.70;;;19.40;41.00;;;;;;5094273;27;46406;-80
2023/09/13 05:40:31;;;;;;;14.40;10.13;;;19.50;41.10;;;;;;5108734;27;46419;-80
2023/09/13 05:42:57;;;;;;;15.17;9.30;;;19.50;41.10;;;;;;5090628;27;46434;-81
2023/09/13 05:45:23;;;;;;;14.70;9.77;;;19.60;41.00;;;;;;5109839;27;46767;-81
2023/09/13 05:47:49;;;;;;;14.43;9.87;;;19.60;40.80;;;;;;5107112;27;46437;-81
2023/09/13 05:50:15;;;;;;;14.77;9.40;;;19.80;40.60;;;;;;5109185;27;46488;-81
2023/09/13 05:52:41;;;;;;;13.93;9.73;;;19.80;40.50;;;;;;5094074;27;46760;-80
2023/09/13 05:55:08;;;;;;;16.77;10.00;;;19.80;40.40;;;;;;5111989;27;46496;-79
2023/09/13 05:57:33;;;;;;;19.70;9.13;;;20.00;40.50;;;;;;5109564;27;46523;-81
2023/09/13 05:59:59;;;;;;;12.57;9.17;;;20.10;40.00;;;;;;5108583;27;46430;-81
2023/09/13 06:02:25;;;;;;;23.37;9.17;;;20.30;39.60;;;;;;5108766;27;46658;-80
2023/09/13 06:04:50;;;;;;;16.20;9.20;;;20.40;39.20;;;;;;5092914;27;47680;-81
2023/09/13 06:07:16;;;;;;;14.47;9.20;;;20.50;39.30;;;;;;5090744;27;46588;-81
2023/09/13 06:09:42;;;;;;;12.70;8.50;;;20.70;40.40;;;;;;5108048;27;46513;-81
2023/09/13 06:12:07;;;;;;;17.00;8.60;;;20.90;39.30;;;;;;5108034;27;46647;-80
2023/09/13 06:14:33;;;;;;;16.73;7.60;;;21.30;38.00;;;;;;5110409;27;47507;-81
2023/09/13 06:16:59;;;;;;;12.17;7.60;;;21.50;37.30;;;;;;5090578;27;47623;-82
2023/09/13 06:19:24;;;;;;;16.13;9.30;;;21.60;36.60;;;;;;5094892;27;46749;-80
2023/09/13 06:21:51;;;;;;;14.13;8.27;;;21.80;35.70;;;;;;5094369;27;45856;-80
2023/09/13 06:24:16;;;;;;;11.93;7.60;;;22.00;35.90;;;;;;5113216;27;46821;-81
2023/09/13 06:26:42;;;;;;;13.17;7.90;;;22.10;35.50;;;;;;5093786;27;46440;-81
2023/09/13 06:29:09;;;;;;;17.07;7.80;;;22.30;35.00;;;;;;5096126;27;46563;-81
2023/09/13 06:31:34;;;;;;;10.60;6.73;;;22.40;34.40;;;;;;5112593;27;46620;-83
2023/09/13 06:34:03;;;;;;;13.43;8.47;;;22.50;34.20;;;;;;5116269;27;46447;-79
2023/09/13 06:36:29;;;;;;;14.13;7.90;;;22.60;34.00;;;;;;5107299;27;46425;-81
2023/09/13 06:38:55;;;;;;;11.00;7.57;;;22.60;33.70;;;;;;5106891;27;46770;-82
2023/09/13 06:41:20;;;;;;;10.80;7.40;;;22.60;33.70;;;;;;5097463;27;46394;-81
2023/09/13 06:43:46;;;;;;;13.17;8.60;;;22.50;33.70;;;;;;5110552;27;46461;-82
2023/09/13 06:46:12;;;;;;;12.50;8.17;;;22.40;33.70;;;;;;5098378;27;46988;-81
2023/09/13 06:48:37;;;;;;;12.90;7.50;;;22.30;33.80;;;;;;5116117;27;46544;-81
2023/09/13 06:51:03;;;;;;;10.70;7.43;;;22.20;34.10;;;;;;5101611;27;46524;-83
2023/09/13 06:53:29;;;;;;;18.17;7.77;;;22.10;34.40;;;;;;5102183;27;47998;-82
2023/09/13 06:55:54;;;;;;;15.67;9.80;;;22.00;34.60;;;;;;5112333;27;46470;-81
2023/09/13 06:58:22;;;;;;;11.97;8.67;;;22.00;34.60;;;;;;5108108;27;46934;-79
2023/09/13 07:00:47;;;;;;;11.20;7.30;;;22.00;34.40;;;;;;5107613;27;46512;-82
2023/09/13 07:03:13;;;;;;;9.73;6.70;;;22.10;34.40;;;;;;5108546;27;48052;-81
2023/09/13 07:05:39;;;;;;;8.73;6.83;;;22.30;34.10;;;;;;5109198;27;46463;-81
2023/09/13 07:08:04;;;;;;;12.80;6.77;;;22.40;33.30;;;;;;5110895;27;46495;-81
2023/09/13 07:10:30;;;;;;;11.73;7.60;;;22.60;32.70;;;;;;5110933;27;46543;-80
2023/09/13 07:12:57;;;;;;;11.03;6.80;;;22.70;32.10;;;;;;5089320;27;47387;-80
2023/09/13 07:15:23;;;;;;;10.60;6.87;;;22.90;31.50;;;;;;5108596;27;46452;-80
2023/09/13 07:17:48;;;;;;;10.10;6.33;;;23.20;30.70;;;;;;5094909;27;46415;-81
2023/09/13 07:20:14;;;;;;;13.17;7.43;;;23.50;29.80;;;;;;5112637;27;45855;-81
2023/09/13 07:22:39;;;;;;;10.33;6.60;;;23.50;29.60;;;;;;5110303;27;46647;-80
2023/09/13 07:25:06;;;;;;;11.50;6.40;;;23.50;29.10;;;;;;5110543;27;46648;-81
2023/09/13 07:27:32;;;;;;;10.97;6.40;;;23.50;28.90;;;;;;5095768;27;46618;-81
2023/09/13 07:29:57;;;;;;;10.53;6.53;;;23.60;28.90;;;;;;5107714;27;46669;-79
2023/09/13 07:32:23;;;;;;;13.70;6.97;;;23.80;28.40;;;;;;5109990;27;46816;-82
2023/09/13 07:34:48;;;;;;;13.20;6.10;;;24.00;27.70;;;;;;5107671;27;46484;-82
2023/09/13 07:37:14;;;;;;;15.77;7.33;;;24.10;27.40;;;;;;5091143;27;46610;-81
2023/09/13 07:39:41;;;;;;;10.10;6.03;;;24.30;27.00;;;;;;5100409;27;46427;-81
2023/09/13 07:42:07;;;;;;;12.63;6.30;;;24.40;26.10;;;;;;5092905;27;49164;-82
2023/09/13 07:44:32;;;;;;;10.87;5.77;;;24.30;25.80;;;;;;5111805;27;46778;-82
2023/09/13 07:46:58;;;;;;;11.83;5.70;;;24.30;25.50;;;;;;5094506;27;46345;-81
2023/09/13 07:49:25;;;;;;;9.43;5.63;;;24.10;25.30;;;;;;5109461;27;46713;-80
2023/09/13 07:51:51;;;;;;;9.03;5.03;;;24.30;25.50;;;;;;5111555;27;46538;-81
2023/09/13 07:54:17;;;;;;;11.33;5.93;;;24.20;25.30;;;;;;5110701;27;46441;-81
2023/09/13 07:56:43;;;;;;;10.10;6.07;;;24.20;25.40;;;;;;5108793;27;46485;-81
2023/09/13 07:59:13;;;;;;;12.37;6.40;;;24.00;25.30;;;;;;5115014;27;46378;-81
2023/09/13 08:01:39;;;;;;;9.60;6.90;;;24.00;24.90;;;;;;5115078;27;46706;-79
2023/09/13 08:04:05;;;;;;;10.63;5.80;;;23.90;24.60;;;;;;5111145;27;46572;-81
2023/09/13 08:06:30;;;;;;;9.93;6.27;;;24.00;24.30;;;;;;5094847;27;46734;-82
2023/09/13 08:08:57;;;;;;;9.53;6.00;;;24.10;24.10;;;;;;5110440;27;46874;-82
2023/09/13 08:11:23;;;;;;;7.77;5.63;;;24.10;23.80;;;;;;5094419;27;48748;-80
2023/09/13 08:13:48;;;;;;;11.63;6.40;;;24.00;24.10;;;;;;5111781;27;46466;-81
2023/09/13 08:16:14;;;;;;;13.13;6.70;;;23.80;24.30;;;;;;5115982;27;46943;-81
2023/09/13 08:18:40;;;;;;;10.90;6.03;;;23.80;24.60;;;;;;5099711;27;46432;-81
2023/09/13 08:21:05;;;;;;;12.70;6.13;;;23.80;24.50;;;;;;5117388;27;46400;-83
2023/09/13 08:23:31;;;;;;;12.20;5.57;;;24.00;24.10;;;;;;5120804;27;46485;-82
2023/09/13 08:25:57;;;;;;;10.20;6.53;;;24.20;24.40;;;;;;5113862;27;47076;-82
2023/09/13 08:28:23;;;;;;;15.20;6.60;;;24.40;23.40;;;;;;5115939;27;46683;-82
2023/09/13 08:30:49;;;;;;;11.33;6.20;;;24.70;22.80;;;;;;5117855;27;46946;-81
2023/09/13 08:33:16;;;;;;;11.33;6.30;;;24.70;22.30;;;;;;5121934;27;46486;-84
2023/09/13 08:35:42;;;;;;;15.63;6.47;;;24.80;21.90;;;;;;5121006;27;46549;-82
2023/09/13 08:38:08;;;;;;;12.43;6.20;;;25.10;21.50;;;;;;5106304;27;46703;-83
2023/09/13 08:40:39;;;;;;;9.73;7.00;;;25.20;20.90;;;;;;5107329;27;48435;-81
2023/09/13 08:43:05;;;;;;;13.50;7.03;;;25.20;20.70;;;;;;5113209;27;46508;-80
2023/09/13 08:45:36;;;;;;;9.50;6.70;;;25.20;20.70;;;;;;5115179;27;46576;-81
2023/09/13 08:48:02;;;;;;;15.83;5.67;;;25.40;20.20;;;;;;5113272;27;46550;-82
2023/09/13 08:50:29;;;;;;;9.20;6.10;;;25.60;19.60;;;;;;5116061;27;47413;-81
2023/09/13 08:52:58;;;;;;;12.43;5.57;;;25.60;19.50;;;;;;5111367;27;46494;-81
2023/09/13 08:55:25;;;;;;;9.87;5.50;;;25.70;19.00;;;;;;5113234;27;46958;-81
2023/09/13 08:57:53;;;;;;;9.33;5.17;;;25.60;18.90;;;;;;5094085;27;46407;-81
2023/09/13 09:00:19;;;;;;;8.63;5.37;;;25.60;18.70;;;;;;5114940;27;46454;-81
2023/09/13 09:02:48;;;;;;;12.50;5.87;;;25.80;18.40;;;;;;5114358;27;46535;-81
2023/09/13 09:05:15;;;;;;;12.33;5.63;;;26.20;17.20;;;;;;5113584;27;46450;-81
2023/09/13 09:07:42;;;;;;;7.30;4.87;;;26.50;16.60;;;;;;5106685;27;46334;-80
2023/09/13 09:10:11;;;;;;;10.13;5.70;;;26.50;16.00;;;;;;5117570;27;47503;-81
2023/09/13 09:12:41;;;;;;;9.83;5.37;;;26.50;16.60;;;;;;5099506;27;47325;-81
2023/09/13 09:15:08;;;;;;;17.97;5.80;;;26.60;15.80;;;;;;5111213;27;46553;-83
2023/09/13 09:17:35;;;;;;;11.13;5.43;;;26.40;15.60;;;;;;5115012;27;46543;-82
2023/09/13 09:20:01;;;;;;;7.10;5.20;;;26.30;15.40;;;;;;5114220;27;46452;-81
2023/09/13 09:22:29;;;;;;;8.20;4.87;;;26.30;15.50;;;;;;5113733;27;46505;-82
2023/09/13 09:24:57;;;;;;;9.43;6.10;;;26.50;15.90;;;;;;5110386;27;46372;-80
2023/09/13 09:27:22;;;;;;;12.10;4.97;;;26.60;14.30;;;;;;5110404;27;46754;-81
2023/09/13 09:30:03;;;;;;;9.13;5.13;;;26.50;13.90;;;;;;5093046;27;48242;-80
2023/09/13 09:32:29;;;;;;;5.97;4.40;;;26.30;13.70;;;;;;5112493;27;46398;-80
2023/09/13 09:34:58;;;;;;;8.67;5.13;;;26.20;14.10;;;;;;5109985;27;46818;-81
2023/09/13 09:37:30;;;;;;;9.07;5.00;;;26.20;14.00;;;;;;5113387;27;46600;-81
2023/09/13 09:39:56;;;;;;;9.80;5.70;;;26.20;14.10;;;;;;5113070;27;47275;-82
2023/09/13 09:42:22;;;;;;;13.33;5.27;;;26.20;13.90;;;;;;5092769;27;46831;-81
2023/09/13 09:44:48;;;;;;;8.40;5.17;;;26.20;13.70;;;;;;5108593;27;46519;-82
2023/09/13 09:47:14;;;;;;;15.93;5.60;;;26.20;13.60;;;;;;5111719;27;46469;-81
2023/09/13 09:49:42;;;;;;;7.70;4.87;;;26.20;13.50;;;;;;5111097;27;46852;-81
2023/09/13 09:52:08;;;;;;;7.30;4.27;;;26.00;13.70;;;;;;5114031;27;46429;-82
2023/09/13 09:54:35;;;;;;;8.23;5.30;;;25.80;14.00;;;;;;5095768;27;46459;-81
2023/09/13 09:57:01;;;;;;;11.17;5.80;;;25.80;14.20;;;;;;5111956;27;46909;-82
2023/09/13 09:59:28;;;;;;;9.73;5.20;;;26.00;13.70;;;;;;5098528;27;48145;-81
2023/09/13 10:02:01;;;;;;;8.27;5.03;;;26.00;13.50;;;;;;5113998;27;46508;-80
2023/09/13 10:04:29;;;;;;;11.50;5.60;;;25.70;13.40;;;;;;5098359;27;46743;-81
2023/09/13 10:07:03;;;;;;;11.70;5.20;;;25.10;14.10;;;;;;5098776;27;46518;-81
2023/09/13 10:09:43;;;;;;;10.47;5.60;;;24.80;14.70;;;;;;5114232;27;47136;-82
2023/09/13 10:12:09;;;;;;;6.80;4.93;;;24.70;14.60;;;;;;5094583;27;47027;-82
2023/09/13 10:14:42;;;;;;;7.30;4.70;;;24.80;14.70;;;;;;5098628;27;46485;-81
2023/09/13 10:17:09;;;;;;;8.83;5.60;;;24.70;14.70;;;;;;5095574;27;47057;-81
2023/09/13 10:19:35;;;;;;;13.30;5.83;;;24.60;15.10;;;;;;5093059;27;48533;-81
2023/09/13 10:22:02;;;;;;;9.50;6.63;;;24.60;15.30;;;;;;5101375;27;46418;-83
2023/09/13 10:24:49;;;;;;;8.77;5.30;;;24.50;16.20;;;;;;5104490;27;46538;-82
2023/09/13 10:27:17;;;;;;;10.67;6.13;;;24.40;16.90;;;;;;5088998;27;47873;-82
2023/09/13 10:29:54;;;;;;;7.13;4.83;;;24.50;16.80;;;;;;5118994;27;47055;-81
2023/09/13 10:32:22;;;;;;;17.53;7.97;;;24.70;16.80;;;;;;5111389;27;46485;-80
2023/09/13 10:34:55;;;;;;;14.17;6.50;;;25.00;16.50;;;;;;5107485;27;46490;-82
2023/09/13 10:37:42;;;;;;;18.00;6.97;;;25.20;16.20;;;;;;5112649;27;46387;-82
2023/09/13 10:40:24;;;;;;;13.20;6.57;;;25.60;15.20;;;;;;5109577;27;46321;-81
2023/09/13 10:42:52;;;;;;;8.53;6.50;;;25.80;15.30;;;;;;5114313;27;46427;-81
2023/09/13 10:45:19;;;;;;;11.90;7.70;;;25.70;15.20;;;;;;5112729;27;46398;-81
2023/09/13 10:47:49;;;;;;;14.83;7.47;;;25.70;15.30;;;;;;5094221;27;46613;-82
2023/09/13 10:50:16;;;;;;;11.60;7.80;;;25.60;15.20;;;;;;5091409;27;48431;-80
2023/09/13 10:52:43;;;;;;;13.97;7.90;;;25.20;16.00;;;;;;5110805;27;47259;-81
2023/09/13 10:55:12;;;;;;;20.40;7.27;;;24.70;17.10;;;;;;5111338;27;46713;-81
2023/09/13 10:57:40;;;;;;;10.43;6.90;;;24.20;18.00;;;;;;5113704;27;46454;-82
2023/09/13 11:00:10;;;;;;;13.93;7.07;;;24.10;18.20;;;;;;5101177;27;48261;-79
2023/09/13 11:02:36;;;;;;;8.50;6.43;;;24.30;18.10;;;;;;5093685;27;47038;-82
2023/09/13 11:05:03;;;;;;;12.23;6.53;;;24.50;17.60;;;;;;5091550;27;46533;-81
2023/09/13 11:07:31;;;;;;;9.37;6.20;;;24.60;17.30;;;;;;5109672;27;46917;-81
2023/09/13 11:10:04;;;;;;;10.80;5.93;;;24.30;17.40;;;;;;5109045;27;46434;-81
2023/09/13 11:12:35;;;;;;;9.27;5.90;;;24.30;17.50;;;;;;5094889;27;46783;-81
2023/09/13 11:15:24;;;;;;;12.03;5.53;;;24.50;17.20;;;;;;5109121;27;46518;-78
2023/09/13 11:17:55;;;;;;;28.93;5.97;;;24.70;16.70;;;;;;5105998;27;46827;-82
2023/09/13 11:20:24;;;;;;;9.77;5.53;;;24.70;16.80;;;;;;5106455;27;48963;-81
2023/09/13 11:23:10;;;;;;;6.70;5.00;;;24.70;16.90;;;;;;5109258;27;46665;-81
2023/09/13 11:25:46;;;;;;;10.13;5.50;;;24.80;16.90;;;;;;5108170;27;46728;-80
2023/09/13 11:28:36;;;;;;;10.90;5.10;;;24.90;16.70;;;;;;5108267;27;46919;-81
2023/09/13 11:31:03;;;;;;;8.63;4.90;;;25.00;16.30;;;;;;5092108;27;48523;-80
2023/09/13 11:33:30;;;;;;;6.67;4.53;;;25.00;15.70;;;;;;5109403;27;46991;-80
2023/09/13 11:35:57;;;;;;;6.60;4.23;;;25.00;15.80;;;;;;5109071;27;46913;-80
2023/09/13 11:38:24;;;;;;;12.47;5.73;;;25.20;15.60;;;;;;5092341;27;47696;-82
2023/09/13 11:40:52;;;;;;;9.37;5.60;;;25.20;15.50;;;;;;5108087;27;46564;-81
2023/09/13 11:43:31;;;;;;;7.23;4.50;;;25.20;15.40;;;;;;5091024;27;47057;-83
2023/09/13 11:45:58;;;;;;;8.50;4.93;;;25.00;15.20;;;;;;5110485;27;46715;-81
2023/09/13 11:48:32;;;;;;;8.93;5.40;;;24.70;15.20;;;;;;5109619;27;46830;-82
2023/09/13 11:51:11;;;;;;;7.57;6.17;;;24.60;15.40;;;;;;5093294;27;49234;-82
2023/09/13 11:53:37;;;;;;;11.57;6.70;;;24.60;15.70;;;;;;5112754;27;46524;-84
2023/09/13 11:56:03;;;;;;;11.60;6.47;;;24.40;15.90;;;;;;5094843;27;45900;-84
2023/09/13 11:58:34;;;;;;;12.60;5.83;;;24.40;16.40;;;;;;5091425;27;46688;-83
2023/09/13 12:01:02;;;;;;;10.80;6.30;;;24.60;16.10;;;;;;5110523;27;46688;-81
2023/09/13 12:03:29;;;;;;;14.57;6.00;;;24.80;15.40;;;;;;5110387;27;45805;-83
2023/09/13 12:05:56;;;;;;;9.10;5.77;;;24.90;14.80;;;;;;5117869;27;46930;-82
2023/09/13 12:08:25;;;;;;;9.30;5.93;;;24.70;15.40;;;;;;5098359;27;46659;-83
2023/09/13 12:10:51;;;;;;;10.10;4.87;;;24.70;15.40;;;;;;5118157;27;46493;-83
2023/09/13 12:13:17;;;;;;;7.10;5.43;;;24.80;15.20;;;;;;5119200;27;46794;-82
2023/09/13 12:16:00;;;;;;;10.53;5.40;;;24.90;14.80;;;;;;5122308;27;46401;-83
2023/09/13 12:18:26;;;;;;;6.73;5.10;;;24.70;14.70;;;;;;5103973;27;46509;-81
2023/09/13 12:20:56;;;;;;;9.30;5.67;;;24.90;14.80;;;;;;5111257;27;46666;-81
2023/09/13 12:23:21;;;;;;;8.60;5.90;;;25.00;14.80;;;;;;5105915;27;46491;-82
2023/09/13 12:25:48;;;;;;;9.07;5.87;;;25.00;14.90;;;;;;5109157;27;46581;-82
2023/09/13 12:28:25;;;;;;;9.33;6.27;;;25.00;14.90;;;;;;5108683;27;46439;-81
2023/09/13 12:30:51;;;;;;;10.53;5.40;;;24.80;14.70;;;;;;5094140;27;47131;-80
2023/09/13 12:33:17;;;;;;;10.20;5.47;;;24.90;14.80;;;;;;5090422;27;46008;-84
2023/09/13 12:35:42;;;;;;;9.03;5.07;;;25.10;14.60;;;;;;5088693;27;46537;-81
2023/09/13 12:38:08;;;;;;;8.00;5.53;;;25.20;14.30;;;;;;5112354;27;46760;-81
2023/09/13 12:40:33;;;;;;;7.47;5.13;;;25.40;14.00;;;;;;5112528;27;46655;-81
2023/09/13 12:42:59;;;;;;;8.93;6.63;;;25.40;14.10;;;;;;5109909;27;46327;-80